sensor_id;sensor_type;location;lat;lon;timestamp;P1;durP1;ratioP1;P2;durP2;ratioP2
47922;SDS011;33688;44.354;9.228;2022-07-29T07:02:09;1.58;;;1.48;;
47922;SDS011;33688;44.354;9.228;2022-07-29T07:04:35;1.10;;;1.00;;
47922;SDS011;33688;44.354;9.228;2022-07-29T07:07:01;1.65;;;1.15;;
47922;SDS011;33688;44.354;9.228;2022-07-29T07:09:27;1.23;;;1.13;;
47922;SDS011;33688;44.354;9.228;2022-07-29T07:11:55;2.15;;;1.20;;
47922;SDS011;33688;44.354;9.228;2022-07-29T07:14:21;4.38;;;1.05;;
47922;SDS011;33688;44.354;9.228;2022-07-29T07:16:47;1.27;;;1.15;;
47922;SDS011;33688;44.354;9.228;2022-07-29T07:19:13;1.38;;;1.27;;
47922;SDS011;33688;44.354;9.228;2022-07-29T07:21:38;1.42;;;1.20;;
47922;SDS011;33688;44.354;9.228;2022-07-29T07:24:07;1.30;;;1.20;;
47922;SDS011;33688;44.354;9.228;2022-07-29T07:26:33;1.27;;;1.17;;
47922;SDS011;33688;44.354;9.228;2022-07-29T07:28:59;1.52;;;0.90;;
47922;SDS011;33688;44.354;9.228;2022-07-29T07:31:25;2.88;;;1.25;;
47922;SDS011;33688;44.354;9.228;2022-07-29T07:33:51;1.15;;;1.00;;
47922;SDS011;33688;44.354;9.228;2022-07-29T07:36:18;3.45;;;2.05;;
47922;SDS011;33688;44.354;9.228;2022-07-29T07:38:44;1.00;;;0.98;;
47922;SDS011;33688;44.354;9.228;2022-07-29T07:41:10;3.15;;;1.20;;
47922;SDS011;33688;44.354;9.228;2022-07-29T07:43:36;1.45;;;1.10;;
47922;SDS011;33688;44.354;9.228;2022-07-29T07:46:01;1.48;;;1.38;;
47922;SDS011;33688;44.354;9.228;2022-07-29T07:48:27;2.58;;;1.30;;
47922;SDS011;33688;44.354;9.228;2022-07-29T07:50:53;3.10;;;1.17;;
47922;SDS011;33688;44.354;9.228;2022-07-29T07:53:18;6.00;;;1.38;;
47922;SDS011;33688;44.354;9.228;2022-07-29T07:55:44;2.20;;;1.50;;
47922;SDS011;33688;44.354;9.228;2022-07-29T07:58:10;3.03;;;1.55;;
47922;SDS011;33688;44.354;9.228;2022-07-29T08:00:36;1.75;;;1.23;;
47922;SDS011;33688;44.354;9.228;2022-07-29T08:03:02;1.75;;;1.50;;
47922;SDS011;33688;44.354;9.228;2022-07-29T08:05:28;2.60;;;1.52;;
47922;SDS011;33688;44.354;9.228;2022-07-29T08:07:57;4.35;;;1.27;;
47922;SDS011;33688;44.354;9.228;2022-07-29T08:10:23;2.85;;;1.50;;
47922;SDS011;33688;44.354;9.228;2022-07-29T08:13:08;3.53;;;1.50;;
47922;SDS011;33688;44.354;9.228;2022-07-29T08:15:35;6.07;;;1.48;;
47922;SDS011;33688;44.354;9.228;2022-07-29T08:18:03;1.88;;;1.60;;
47922;SDS011;33688;44.354;9.228;2022-07-29T08:20:28;2.58;;;1.50;;
47922;SDS011;33688;44.354;9.228;2022-07-29T08:22:55;2.92;;;1.40;;
47922;SDS011;33688;44.354;9.228;2022-07-29T08:25:20;2.65;;;1.20;;
47922;SDS011;33688;44.354;9.228;2022-07-29T08:27:47;1.80;;;1.20;;
47922;SDS011;33688;44.354;9.228;2022-07-29T08:30:12;2.30;;;1.33;;
47922;SDS011;33688;44.354;9.228;2022-07-29T08:32:38;3.17;;;1.35;;
47922;SDS011;33688;44.354;9.228;2022-07-29T08:35:04;2.88;;;1.63;;
47922;SDS011;33688;44.354;9.228;2022-07-29T08:37:31;5.00;;;1.40;;
47922;SDS011;33688;44.354;9.228;2022-07-29T08:39:56;1.73;;;1.45;;
47922;SDS011;33688;44.354;9.228;2022-07-29T08:42:22;2.95;;;1.63;;
47922;SDS011;33688;44.354;9.228;2022-07-29T08:44:48;12.63;;;2.17;;
47922;SDS011;33688;44.354;9.228;2022-07-29T08:47:19;2.70;;;1.85;;
47922;SDS011;33688;44.354;9.228;2022-07-29T08:49:47;1.85;;;1.50;;
47922;SDS011;33688;44.354;9.228;2022-07-29T08:52:13;1.80;;;1.20;;
47922;SDS011;33688;44.354;9.228;2022-07-29T08:54:40;3.20;;;1.55;;
47922;SDS011;33688;44.354;9.228;2022-07-29T08:57:10;4.00;;;1.58;;
47922;SDS011;33688;44.354;9.228;2022-07-29T08:59:40;2.53;;;1.58;;
47922;SDS011;33688;44.354;9.228;2022-07-29T09:02:25;1.88;;;1.52;;
47922;SDS011;33688;44.354;9.228;2022-07-29T09:04:58;8.10;;;1.55;;
47922;SDS011;33688;44.354;9.228;2022-07-29T09:07:38;4.90;;;1.60;;
47922;SDS011;33688;44.354;9.228;2022-07-29T09:10:13;3.92;;;1.48;;
47922;SDS011;33688;44.354;9.228;2022-07-29T09:12:38;3.58;;;1.40;;
47922;SDS011;33688;44.354;9.228;2022-07-29T09:15:07;2.70;;;1.73;;
47922;SDS011;33688;44.354;9.228;2022-07-29T09:17:43;1.63;;;1.33;;
47922;SDS011;33688;44.354;9.228;2022-07-29T09:20:13;2.83;;;1.73;;
47922;SDS011;33688;44.354;9.228;2022-07-29T09:22:48;2.00;;;1.52;;
47922;SDS011;33688;44.354;9.228;2022-07-29T09:25:36;2.17;;;1.70;;
47922;SDS011;33688;44.354;9.228;2022-07-29T09:28:09;2.15;;;1.50;;
47922;SDS011;33688;44.354;9.228;2022-07-29T09:30:54;2.08;;;1.55;;
47922;SDS011;33688;44.354;9.228;2022-07-29T09:33:23;2.85;;;1.50;;
47922;SDS011;33688;44.354;9.228;2022-07-29T09:38:31;5.53;;;1.58;;
47922;SDS011;33688;44.354;9.228;2022-07-29T09:41:02;2.05;;;1.50;;
47922;SDS011;33688;44.354;9.228;2022-07-29T09:43:34;3.78;;;1.60;;
47922;SDS011;33688;44.354;9.228;2022-07-29T09:46:09;1.50;;;1.40;;
47922;SDS011;33688;44.354;9.228;2022-07-29T09:48:36;1.88;;;1.52;;
47922;SDS011;33688;44.354;9.228;2022-07-29T09:51:02;2.80;;;1.52;;
47922;SDS011;33688;44.354;9.228;2022-07-29T09:53:33;1.75;;;1.65;;
47922;SDS011;33688;44.354;9.228;2022-07-29T09:56:01;1.30;;;1.20;;
47922;SDS011;33688;44.354;9.228;2022-07-29T09:58:28;2.25;;;1.42;;
47922;SDS011;33688;44.354;9.228;2022-07-29T10:00:54;1.90;;;1.40;;
47922;SDS011;33688;44.354;9.228;2022-07-29T10:03:21;2.20;;;1.50;;
47922;SDS011;33688;44.354;9.228;2022-07-29T10:06:05;1.83;;;1.55;;
47922;SDS011;33688;44.354;9.228;2022-07-29T10:08:33;2.97;;;1.50;;
47922;SDS011;33688;44.354;9.228;2022-07-29T10:11:09;4.63;;;1.20;;
47922;SDS011;33688;44.354;9.228;2022-07-29T10:13:35;1.67;;;1.58;;
47922;SDS011;33688;44.354;9.228;2022-07-29T10:16:01;2.08;;;1.38;;
47922;SDS011;33688;44.354;9.228;2022-07-29T10:18:28;7.43;;;1.52;;
47922;SDS011;33688;44.354;9.228;2022-07-29T10:20:54;2.25;;;1.65;;
47922;SDS011;33688;44.354;9.228;2022-07-29T10:23:21;4.97;;;1.65;;
47922;SDS011;33688;44.354;9.228;2022-07-29T10:25:49;2.22;;;1.35;;
47922;SDS011;33688;44.354;9.228;2022-07-29T10:28:15;2.15;;;1.30;;
47922;SDS011;33688;44.354;9.228;2022-07-29T10:30:41;2.10;;;1.60;;
47922;SDS011;33688;44.354;9.228;2022-07-29T10:33:21;3.30;;;1.35;;
47922;SDS011;33688;44.354;9.228;2022-07-29T10:36:32;2.90;;;1.50;;
47922;SDS011;33688;44.354;9.228;2022-07-29T10:39:42;2.58;;;1.42;;
47922;SDS011;33688;44.354;9.228;2022-07-29T10:42:20;2.20;;;1.55;;
47922;SDS011;33688;44.354;9.228;2022-07-29T10:44:49;2.00;;;1.63;;
47922;SDS011;33688;44.354;9.228;2022-07-29T10:47:23;1.55;;;1.33;;
47922;SDS011;33688;44.354;9.228;2022-07-29T10:49:59;2.25;;;1.60;;
47922;SDS011;33688;44.354;9.228;2022-07-29T10:55:41;2.33;;;1.30;;
47922;SDS011;33688;44.354;9.228;2022-07-29T10:58:16;2.13;;;1.58;;
47922;SDS011;33688;44.354;9.228;2022-07-29T11:00:52;1.63;;;1.42;;
47922;SDS011;33688;44.354;9.228;2022-07-29T11:06:14;3.92;;;1.35;;
47922;SDS011;33688;44.354;9.228;2022-07-29T11:08:39;1.48;;;1.35;;
47922;SDS011;33688;44.354;9.228;2022-07-29T11:16:11;2.67;;;1.20;;
47922;SDS011;33688;44.354;9.228;2022-07-29T11:21:39;1.60;;;1.13;;
47922;SDS011;33688;44.354;9.228;2022-07-29T11:24:13;3.45;;;1.67;;
47922;SDS011;33688;44.354;9.228;2022-07-29T11:29:20;1.65;;;1.30;;
47922;SDS011;33688;44.354;9.228;2022-07-29T11:31:50;3.05;;;1.88;;
47922;SDS011;33688;44.354;9.228;2022-07-29T11:34:24;1.95;;;1.58;;
47922;SDS011;33688;44.354;9.228;2022-07-29T11:47:28;1.77;;;1.00;;
47922;SDS011;33688;44.354;9.228;2022-07-29T11:49:55;3.08;;;1.63;;
47922;SDS011;33688;44.354;9.228;2022-07-29T11:52:23;2.28;;;1.50;;
47922;SDS011;33688;44.354;9.228;2022-07-29T11:54:57;1.33;;;1.02;;
47922;SDS011;33688;44.354;9.228;2022-07-29T11:57:26;1.52;;;1.15;;
47922;SDS011;33688;44.354;9.228;2022-07-29T11:59:53;2.92;;;1.63;;
47922;SDS011;33688;44.354;9.228;2022-07-29T12:02:20;1.77;;;1.40;;
47922;SDS011;33688;44.354;9.228;2022-07-29T12:04:49;2.88;;;1.60;;
47922;SDS011;33688;44.354;9.228;2022-07-29T12:07:29;1.48;;;1.38;;
47922;SDS011;33688;44.354;9.228;2022-07-29T12:09:56;2.08;;;1.30;;
47922;SDS011;33688;44.354;9.228;2022-07-29T12:12:23;2.53;;;1.50;;
47922;SDS011;33688;44.354;9.228;2022-07-29T12:14:49;2.33;;;1.23;;
47922;SDS011;33688;44.354;9.228;2022-07-29T12:17:28;1.52;;;1.02;;
47922;SDS011;33688;44.354;9.228;2022-07-29T12:19:56;3.03;;;1.77;;
47922;SDS011;33688;44.354;9.228;2022-07-29T12:22:25;1.13;;;1.02;;
47922;SDS011;33688;44.354;9.228;2022-07-29T12:24:53;2.85;;;1.50;;
47922;SDS011;33688;44.354;9.228;2022-07-29T12:27:20;1.20;;;1.10;;
47922;SDS011;33688;44.354;9.228;2022-07-29T12:29:59;1.50;;;1.23;;
47922;SDS011;33688;44.354;9.228;2022-07-29T12:32:38;1.92;;;1.30;;
47922;SDS011;33688;44.354;9.228;2022-07-29T12:35:13;1.83;;;1.30;;
47922;SDS011;33688;44.354;9.228;2022-07-29T12:37:41;2.38;;;1.40;;
47922;SDS011;33688;44.354;9.228;2022-07-29T12:40:10;1.20;;;1.10;;
47922;SDS011;33688;44.354;9.228;2022-07-29T12:45:42;2.00;;;1.27;;
47922;SDS011;33688;44.354;9.228;2022-07-29T12:48:11;6.75;;;1.88;;
47922;SDS011;33688;44.354;9.228;2022-07-29T12:50:51;1.67;;;1.35;;
47922;SDS011;33688;44.354;9.228;2022-07-29T12:53:20;2.55;;;1.27;;
47922;SDS011;33688;44.354;9.228;2022-07-29T12:55:46;2.40;;;1.70;;
47922;SDS011;33688;44.354;9.228;2022-07-29T12:58:29;2.42;;;1.45;;
47922;SDS011;33688;44.354;9.228;2022-07-29T13:01:14;5.28;;;1.40;;
47922;SDS011;33688;44.354;9.228;2022-07-29T13:09:11;7.10;;;1.50;;
47922;SDS011;33688;44.354;9.228;2022-07-29T13:11:43;1.52;;;1.08;;
47922;SDS011;33688;44.354;9.228;2022-07-29T13:14:13;3.42;;;1.60;;
47922;SDS011;33688;44.354;9.228;2022-07-29T13:19:35;2.67;;;1.58;;
47922;SDS011;33688;44.354;9.228;2022-07-29T13:22:16;1.50;;;1.40;;
47922;SDS011;33688;44.354;9.228;2022-07-29T13:24:50;1.85;;;1.35;;
47922;SDS011;33688;44.354;9.228;2022-07-29T13:27:25;1.75;;;1.45;;
47922;SDS011;33688;44.354;9.228;2022-07-29T13:29:55;9.65;;;1.48;;
47922;SDS011;33688;44.354;9.228;2022-07-29T13:32:26;2.20;;;1.40;;
47922;SDS011;33688;44.354;9.228;2022-07-29T13:34:55;1.85;;;1.30;;
47922;SDS011;33688;44.354;9.228;2022-07-29T13:37:22;3.35;;;1.58;;
47922;SDS011;33688;44.354;9.228;2022-07-29T13:39:53;1.63;;;1.53;;
47922;SDS011;33688;44.354;9.228;2022-07-29T13:42:21;6.68;;;2.03;;
47922;SDS011;33688;44.354;9.228;2022-07-29T13:44:48;2.47;;;1.63;;
47922;SDS011;33688;44.354;9.228;2022-07-29T13:47:16;2.83;;;1.70;;
47922;SDS011;33688;44.354;9.228;2022-07-29T13:49:42;2.97;;;1.58;;
47922;SDS011;33688;44.354;9.228;2022-07-29T13:52:08;2.50;;;1.75;;
47922;SDS011;33688;44.354;9.228;2022-07-29T13:54:34;2.65;;;1.70;;
47922;SDS011;33688;44.354;9.228;2022-07-29T13:57:03;3.10;;;1.58;;
47922;SDS011;33688;44.354;9.228;2022-07-29T13:59:29;3.47;;;2.08;;
47922;SDS011;33688;44.354;9.228;2022-07-29T14:01:55;1.40;;;1.30;;
47922;SDS011;33688;44.354;9.228;2022-07-29T14:04:21;1.60;;;1.50;;
47922;SDS011;33688;44.354;9.228;2022-07-29T14:06:48;2.55;;;1.48;;
47922;SDS011;33688;44.354;9.228;2022-07-29T14:09:14;2.08;;;1.50;;
47922;SDS011;33688;44.354;9.228;2022-07-29T14:11:40;2.08;;;1.35;;
47922;SDS011;33688;44.354;9.228;2022-07-29T14:14:09;1.48;;;1.38;;
47922;SDS011;33688;44.354;9.228;2022-07-29T14:16:35;2.00;;;1.27;;
47922;SDS011;33688;44.354;9.228;2022-07-29T14:19:01;3.47;;;1.63;;
47922;SDS011;33688;44.354;9.228;2022-07-29T14:21:27;1.60;;;1.15;;
47922;SDS011;33688;44.354;9.228;2022-07-29T14:23:53;0.93;;;0.93;;
47922;SDS011;33688;44.354;9.228;2022-07-29T14:26:20;1.30;;;1.10;;
47922;SDS011;33688;44.354;9.228;2022-07-29T14:28:47;1.10;;;1.00;;
47922;SDS011;33688;44.354;9.228;2022-07-29T14:31:14;1.58;;;1.05;;
47922;SDS011;33688;44.354;9.228;2022-07-29T14:33:40;7.18;;;1.50;;
47922;SDS011;33688;44.354;9.228;2022-07-29T14:36:07;4.18;;;1.17;;
47922;SDS011;33688;44.354;9.228;2022-07-29T14:38:32;1.65;;;1.15;;
47922;SDS011;33688;44.354;9.228;2022-07-29T14:41:01;4.80;;;1.42;;
47922;SDS011;33688;44.354;9.228;2022-07-29T14:43:27;1.52;;;1.25;;
47922;SDS011;33688;44.354;9.228;2022-07-29T14:45:54;1.35;;;1.10;;
47922;SDS011;33688;44.354;9.228;2022-07-29T14:48:21;2.65;;;1.35;;
47922;SDS011;33688;44.354;9.228;2022-07-29T14:50:47;1.98;;;1.10;;
47922;SDS011;33688;44.354;9.228;2022-07-29T14:53:12;1.52;;;1.42;;
47922;SDS011;33688;44.354;9.228;2022-07-29T14:55:38;2.05;;;1.48;;
47922;SDS011;33688;44.354;9.228;2022-07-29T14:58:05;5.85;;;1.33;;
47922;SDS011;33688;44.354;9.228;2022-07-29T15:00:31;1.55;;;1.10;;
47922;SDS011;33688;44.354;9.228;2022-07-29T15:02:59;1.38;;;1.13;;
47922;SDS011;33688;44.354;9.228;2022-07-29T15:05:26;2.60;;;1.00;;
47922;SDS011;33688;44.354;9.228;2022-07-29T15:07:51;1.20;;;1.00;;
47922;SDS011;33688;44.354;9.228;2022-07-29T15:10:18;2.88;;;1.10;;
47922;SDS011;33688;44.354;9.228;2022-07-29T15:12:44;2.95;;;1.35;;
47922;SDS011;33688;44.354;9.228;2022-07-29T15:15:10;1.95;;;1.00;;
47922;SDS011;33688;44.354;9.228;2022-07-29T15:17:36;2.30;;;1.30;;
47922;SDS011;33688;44.354;9.228;2022-07-29T15:20:02;1.83;;;1.42;;
47922;SDS011;33688;44.354;9.228;2022-07-29T15:22:28;2.67;;;1.27;;
47922;SDS011;33688;44.354;9.228;2022-07-29T15:24:54;1.88;;;1.20;;
47922;SDS011;33688;44.354;9.228;2022-07-29T15:27:23;2.03;;;1.10;;
47922;SDS011;33688;44.354;9.228;2022-07-29T15:29:48;2.97;;;1.10;;
47922;SDS011;33688;44.354;9.228;2022-07-29T15:32:14;2.13;;;1.33;;
47922;SDS011;33688;44.354;9.228;2022-07-29T15:34:40;2.08;;;1.20;;
47922;SDS011;33688;44.354;9.228;2022-07-29T15:37:06;1.60;;;1.13;;
47922;SDS011;33688;44.354;9.228;2022-07-29T15:39:32;2.40;;;1.00;;
47922;SDS011;33688;44.354;9.228;2022-07-29T15:41:57;2.10;;;1.38;;
47922;SDS011;33688;44.354;9.228;2022-07-29T15:44:26;2.40;;;1.10;;
47922;SDS011;33688;44.354;9.228;2022-07-29T15:46:52;1.75;;;0.93;;
47922;SDS011;33688;44.354;9.228;2022-07-29T15:49:37;1.35;;;1.00;;
47922;SDS011;33688;44.354;9.228;2022-07-29T15:52:06;8.93;;;1.75;;
47922;SDS011;33688;44.354;9.228;2022-07-29T15:54:34;1.70;;;1.20;;
47922;SDS011;33688;44.354;9.228;2022-07-29T15:57:03;1.20;;;1.10;;
47922;SDS011;33688;44.354;9.228;2022-07-29T15:59:31;2.08;;;1.20;;
47922;SDS011;33688;44.354;9.228;2022-07-29T16:01:58;1.40;;;1.17;;
47922;SDS011;33688;44.354;9.228;2022-07-29T16:04:24;1.90;;;1.25;;
47922;SDS011;33688;44.354;9.228;2022-07-29T16:06:51;1.35;;;1.00;;
47922;SDS011;33688;44.354;9.228;2022-07-29T16:09:18;1.00;;;0.80;;
47922;SDS011;33688;44.354;9.228;2022-07-29T16:11:44;1.75;;;0.98;;
47922;SDS011;33688;44.354;9.228;2022-07-29T16:14:10;1.30;;;1.20;;
47922;SDS011;33688;44.354;9.228;2022-07-29T16:16:37;1.65;;;1.25;;
47922;SDS011;33688;44.354;9.228;2022-07-29T16:19:03;2.83;;;1.10;;
47922;SDS011;33688;44.354;9.228;2022-07-29T16:21:33;1.90;;;1.10;;
47922;SDS011;33688;44.354;9.228;2022-07-29T16:23:59;1.08;;;0.90;;
47922;SDS011;33688;44.354;9.228;2022-07-29T16:26:25;0.93;;;0.82;;
47922;SDS011;33688;44.354;9.228;2022-07-29T16:28:51;1.63;;;0.90;;
47922;SDS011;33688;44.354;9.228;2022-07-29T16:31:18;2.22;;;1.42;;
47922;SDS011;33688;44.354;9.228;2022-07-29T16:33:50;1.00;;;0.93;;
47922;SDS011;33688;44.354;9.228;2022-07-29T16:36:20;2.55;;;1.40;;
47922;SDS011;33688;44.354;9.228;2022-07-29T16:38:46;1.42;;;1.05;;
47922;SDS011;33688;44.354;9.228;2022-07-29T16:41:12;2.10;;;0.90;;
47922;SDS011;33688;44.354;9.228;2022-07-29T16:43:38;1.23;;;1.10;;
47922;SDS011;33688;44.354;9.228;2022-07-29T16:46:06;2.45;;;1.00;;
47922;SDS011;33688;44.354;9.228;2022-07-29T16:48:33;1.27;;;1.17;;
47922;SDS011;33688;44.354;9.228;2022-07-29T16:50:59;4.15;;;1.45;;
47922;SDS011;33688;44.354;9.228;2022-07-29T16:53:25;2.47;;;1.00;;
47922;SDS011;33688;44.354;9.228;2022-07-29T16:55:52;1.20;;;0.90;;
47922;SDS011;33688;44.354;9.228;2022-07-29T16:58:18;0.85;;;0.85;;
47922;SDS011;33688;44.354;9.228;2022-07-29T17:00:43;1.40;;;1.02;;
47922;SDS011;33688;44.354;9.228;2022-07-29T17:03:09;1.52;;;1.02;;
47922;SDS011;33688;44.354;9.228;2022-07-29T17:05:35;4.43;;;0.88;;
47922;SDS011;33688;44.354;9.228;2022-07-29T17:08:01;1.10;;;1.00;;
47922;SDS011;33688;44.354;9.228;2022-07-29T17:10:26;1.15;;;1.05;;
47922;SDS011;33688;44.354;9.228;2022-07-29T17:12:54;0.98;;;0.93;;
47922;SDS011;33688;44.354;9.228;2022-07-29T17:15:19;2.30;;;0.98;;
47922;SDS011;33688;44.354;9.228;2022-07-29T17:17:45;5.05;;;1.35;;
47922;SDS011;33688;44.354;9.228;2022-07-29T17:20:11;2.25;;;1.38;;
47922;SDS011;33688;44.354;9.228;2022-07-29T17:22:38;2.75;;;1.60;;
47922;SDS011;33688;44.354;9.228;2022-07-29T17:25:07;1.55;;;1.00;;
47922;SDS011;33688;44.354;9.228;2022-07-29T17:27:34;2.03;;;1.15;;
47922;SDS011;33688;44.354;9.228;2022-07-29T17:30:00;1.67;;;1.10;;
47922;SDS011;33688;44.354;9.228;2022-07-29T17:32:27;1.42;;;1.10;;
47922;SDS011;33688;44.354;9.228;2022-07-29T17:34:53;1.33;;;1.10;;
47922;SDS011;33688;44.354;9.228;2022-07-29T17:37:18;3.38;;;1.30;;
47922;SDS011;33688;44.354;9.228;2022-07-29T17:39:44;2.25;;;1.00;;
47922;SDS011;33688;44.354;9.228;2022-07-29T17:42:11;3.10;;;1.10;;
47922;SDS011;33688;44.354;9.228;2022-07-29T17:44:38;2.08;;;1.10;;
47922;SDS011;33688;44.354;9.228;2022-07-29T17:47:05;1.75;;;1.20;;
47922;SDS011;33688;44.354;9.228;2022-07-29T17:49:31;1.13;;;1.00;;
47922;SDS011;33688;44.354;9.228;2022-07-29T17:52:16;1.03;;;0.75;;
47922;SDS011;33688;44.354;9.228;2022-07-29T17:54:42;8.60;;;0.90;;
47922;SDS011;33688;44.354;9.228;2022-07-29T17:57:08;1.10;;;0.90;;
47922;SDS011;33688;44.354;9.228;2022-07-29T17:59:34;5.63;;;1.20;;
47922;SDS011;33688;44.354;9.228;2022-07-29T18:01:59;1.42;;;0.77;;
47922;SDS011;33688;44.354;9.228;2022-07-29T18:04:25;4.68;;;0.77;;
47922;SDS011;33688;44.354;9.228;2022-07-29T18:06:52;2.00;;;0.75;;
47922;SDS011;33688;44.354;9.228;2022-07-29T18:09:18;2.17;;;0.98;;
47922;SDS011;33688;44.354;9.228;2022-07-29T18:11:44;1.13;;;1.02;;
47922;SDS011;33688;44.354;9.228;2022-07-29T18:14:10;4.45;;;1.25;;
47922;SDS011;33688;44.354;9.228;2022-07-29T18:16:36;1.67;;;0.80;;
47922;SDS011;33688;44.354;9.228;2022-07-29T18:19:02;1.73;;;1.30;;
47922;SDS011;33688;44.354;9.228;2022-07-29T18:21:28;3.80;;;0.80;;
47922;SDS011;33688;44.354;9.228;2022-07-29T18:23:56;1.27;;;0.70;;
47922;SDS011;33688;44.354;9.228;2022-07-29T18:26:22;1.42;;;1.05;;
47922;SDS011;33688;44.354;9.228;2022-07-29T18:28:51;1.85;;;0.90;;
47922;SDS011;33688;44.354;9.228;2022-07-29T18:31:16;1.65;;;0.90;;
47922;SDS011;33688;44.354;9.228;2022-07-29T18:33:42;4.15;;;1.10;;
47922;SDS011;33688;44.354;9.228;2022-07-29T18:36:07;1.63;;;1.20;;
47922;SDS011;33688;44.354;9.228;2022-07-29T18:38:33;2.47;;;0.77;;
47922;SDS011;33688;44.354;9.228;2022-07-29T18:40:59;0.93;;;0.90;;
47922;SDS011;33688;44.354;9.228;2022-07-29T18:43:25;1.90;;;1.17;;
47922;SDS011;33688;44.354;9.228;2022-07-29T18:45:50;1.02;;;0.80;;
47922;SDS011;33688;44.354;9.228;2022-07-29T18:48:16;1.35;;;1.00;;
47922;SDS011;33688;44.354;9.228;2022-07-29T18:50:42;0.60;;;0.60;;
47922;SDS011;33688;44.354;9.228;2022-07-29T18:53:08;2.92;;;1.10;;
47922;SDS011;33688;44.354;9.228;2022-07-29T18:55:33;1.13;;;0.90;;
47922;SDS011;33688;44.354;9.228;2022-07-29T18:57:59;1.38;;;0.88;;
47922;SDS011;33688;44.354;9.228;2022-07-29T19:00:25;3.00;;;1.10;;
47922;SDS011;33688;44.354;9.228;2022-07-29T19:02:51;1.10;;;0.90;;
47922;SDS011;33688;44.354;9.228;2022-07-29T19:05:17;1.17;;;0.82;;
47922;SDS011;33688;44.354;9.228;2022-07-29T19:07:43;1.88;;;1.00;;
47922;SDS011;33688;44.354;9.228;2022-07-29T19:10:09;1.38;;;0.70;;
47922;SDS011;33688;44.354;9.228;2022-07-29T19:12:38;0.88;;;0.85;;
47922;SDS011;33688;44.354;9.228;2022-07-29T19:15:04;1.58;;;0.70;;
47922;SDS011;33688;44.354;9.228;2022-07-29T19:17:32;1.38;;;0.73;;
47922;SDS011;33688;44.354;9.228;2022-07-29T19:19:57;0.77;;;0.77;;
47922;SDS011;33688;44.354;9.228;2022-07-29T19:22:23;2.22;;;0.90;;
47922;SDS011;33688;44.354;9.228;2022-07-29T19:24:52;0.90;;;0.60;;
47922;SDS011;33688;44.354;9.228;2022-07-29T19:27:17;0.98;;;0.90;;
47922;SDS011;33688;44.354;9.228;2022-07-29T19:29:43;2.13;;;0.80;;
47922;SDS011;33688;44.354;9.228;2022-07-29T19:32:10;1.42;;;0.80;;
47922;SDS011;33688;44.354;9.228;2022-07-29T19:34:39;0.80;;;0.77;;
47922;SDS011;33688;44.354;9.228;2022-07-29T19:37:05;0.60;;;0.60;;
47922;SDS011;33688;44.354;9.228;2022-07-29T19:39:31;1.85;;;1.40;;
47922;SDS011;33688;44.354;9.228;2022-07-29T19:42:00;1.10;;;0.90;;
47922;SDS011;33688;44.354;9.228;2022-07-29T19:44:26;0.70;;;0.60;;
47922;SDS011;33688;44.354;9.228;2022-07-29T19:46:52;0.88;;;0.82;;
47922;SDS011;33688;44.354;9.228;2022-07-29T19:49:17;1.33;;;0.77;;
47922;SDS011;33688;44.354;9.228;2022-07-29T19:51:43;1.20;;;1.00;;
47922;SDS011;33688;44.354;9.228;2022-07-29T19:54:09;0.70;;;0.70;;
47922;SDS011;33688;44.354;9.228;2022-07-29T19:56:35;1.10;;;0.80;;
47922;SDS011;33688;44.354;9.228;2022-07-29T19:59:02;0.93;;;0.93;;
47922;SDS011;33688;44.354;9.228;2022-07-29T20:01:28;0.60;;;0.60;;
47922;SDS011;33688;44.354;9.228;2022-07-29T20:03:54;0.70;;;0.70;;
47922;SDS011;33688;44.354;9.228;2022-07-29T20:06:20;2.30;;;0.95;;
47922;SDS011;33688;44.354;9.228;2022-07-29T20:08:47;0.90;;;0.80;;
47922;SDS011;33688;44.354;9.228;2022-07-29T20:11:13;0.57;;;0.57;;
47922;SDS011;33688;44.354;9.228;2022-07-29T20:13:38;1.13;;;0.85;;
47922;SDS011;33688;44.354;9.228;2022-07-29T20:16:04;0.70;;;0.70;;
47922;SDS011;33688;44.354;9.228;2022-07-29T20:18:32;1.33;;;0.50;;
47922;SDS011;33688;44.354;9.228;2022-07-29T20:20:58;0.70;;;0.63;;
47922;SDS011;33688;44.354;9.228;2022-07-29T20:23:25;0.85;;;0.60;;
47922;SDS011;33688;44.354;9.228;2022-07-29T20:25:51;0.80;;;0.47;;
47922;SDS011;33688;44.354;9.228;2022-07-29T20:28:17;0.77;;;0.60;;
47922;SDS011;33688;44.354;9.228;2022-07-29T20:30:43;2.15;;;0.80;;
47922;SDS011;33688;44.354;9.228;2022-07-29T20:33:08;1.10;;;0.98;;
47922;SDS011;33688;44.354;9.228;2022-07-29T20:35:37;0.70;;;0.70;;
47922;SDS011;33688;44.354;9.228;2022-07-29T20:38:04;2.75;;;0.70;;
47922;SDS011;33688;44.354;9.228;2022-07-29T20:40:31;0.68;;;0.68;;
47922;SDS011;33688;44.354;9.228;2022-07-29T20:42:57;0.60;;;0.60;;
47922;SDS011;33688;44.354;9.228;2022-07-29T20:45:23;0.75;;;0.75;;
47922;SDS011;33688;44.354;9.228;2022-07-29T20:47:50;0.68;;;0.68;;
47922;SDS011;33688;44.354;9.228;2022-07-29T20:50:17;0.60;;;0.60;;
47922;SDS011;33688;44.354;9.228;2022-07-29T20:52:46;1.45;;;0.80;;
47922;SDS011;33688;44.354;9.228;2022-07-29T20:55:17;0.70;;;0.70;;
47922;SDS011;33688;44.354;9.228;2022-07-29T20:57:43;0.77;;;0.77;;
47922;SDS011;33688;44.354;9.228;2022-07-29T21:00:09;2.15;;;1.02;;
47922;SDS011;33688;44.354;9.228;2022-07-29T21:02:35;0.60;;;0.60;;
47922;SDS011;33688;44.354;9.228;2022-07-29T21:05:01;0.80;;;0.60;;
47922;SDS011;33688;44.354;9.228;2022-07-29T21:07:26;1.02;;;0.93;;
47922;SDS011;33688;44.354;9.228;2022-07-29T21:09:52;1.10;;;1.00;;
47922;SDS011;33688;44.354;9.228;2022-07-29T21:12:18;0.73;;;0.60;;
47922;SDS011;33688;44.354;9.228;2022-07-29T21:14:43;1.50;;;0.82;;
47922;SDS011;33688;44.354;9.228;2022-07-29T21:17:13;1.23;;;0.70;;
47922;SDS011;33688;44.354;9.228;2022-07-29T21:19:40;1.10;;;0.75;;
47922;SDS011;33688;44.354;9.228;2022-07-29T21:22:06;0.80;;;0.70;;
47922;SDS011;33688;44.354;9.228;2022-07-29T21:24:32;0.60;;;0.60;;
47922;SDS011;33688;44.354;9.228;2022-07-29T21:26:58;0.60;;;0.55;;
47922;SDS011;33688;44.354;9.228;2022-07-29T21:29:42;0.75;;;0.75;;
47922;SDS011;33688;44.354;9.228;2022-07-29T21:32:08;0.80;;;0.80;;
47922;SDS011;33688;44.354;9.228;2022-07-29T21:34:33;1.20;;;1.10;;
47922;SDS011;33688;44.354;9.228;2022-07-29T21:36:59;0.95;;;0.80;;
47922;SDS011;33688;44.354;9.228;2022-07-29T21:39:25;1.58;;;0.85;;
47922;SDS011;33688;44.354;9.228;2022-07-29T21:41:55;1.15;;;0.75;;
47922;SDS011;33688;44.354;9.228;2022-07-29T21:44:20;0.70;;;0.70;;
47922;SDS011;33688;44.354;9.228;2022-07-29T21:46:47;0.60;;;0.60;;
47922;SDS011;33688;44.354;9.228;2022-07-29T21:49:13;1.02;;;0.90;;
47922;SDS011;33688;44.354;9.228;2022-07-29T21:51:41;1.33;;;0.90;;
47922;SDS011;33688;44.354;9.228;2022-07-29T21:54:07;0.50;;;0.50;;
47922;SDS011;33688;44.354;9.228;2022-07-29T21:56:33;0.60;;;0.60;;
47922;SDS011;33688;44.354;9.228;2022-07-29T21:58:59;0.60;;;0.60;;
47922;SDS011;33688;44.354;9.228;2022-07-29T22:01:24;0.77;;;0.77;;
47922;SDS011;33688;44.354;9.228;2022-07-29T22:03:50;0.85;;;0.82;;
47922;SDS011;33688;44.354;9.228;2022-07-29T22:06:18;0.80;;;0.50;;
47922;SDS011;33688;44.354;9.228;2022-07-29T22:08:44;0.68;;;0.68;;
47922;SDS011;33688;44.354;9.228;2022-07-29T22:11:10;0.63;;;0.63;;
47922;SDS011;33688;44.354;9.228;2022-07-29T22:13:37;0.88;;;0.88;;
47922;SDS011;33688;44.354;9.228;2022-07-29T22:16:02;0.75;;;0.75;;
47922;SDS011;33688;44.354;9.228;2022-07-29T22:18:28;0.63;;;0.63;;
47922;SDS011;33688;44.354;9.228;2022-07-29T22:20:54;0.90;;;0.70;;
47922;SDS011;33688;44.354;9.228;2022-07-29T22:23:20;1.10;;;1.00;;
47922;SDS011;33688;44.354;9.228;2022-07-29T22:25:45;0.93;;;0.60;;
47922;SDS011;33688;44.354;9.228;2022-07-29T22:28:11;0.60;;;0.60;;
47922;SDS011;33688;44.354;9.228;2022-07-29T22:30:37;0.70;;;0.70;;
47922;SDS011;33688;44.354;9.228;2022-07-29T22:33:02;0.90;;;0.70;;
47922;SDS011;33688;44.354;9.228;2022-07-29T22:35:28;0.60;;;0.60;;